Reynolds, Nebraska
Current Conditions -  °F | °C
As of 3:15 AM on Friday 31 Oct 2014 (Local Time) from KHJH Reporting Station
Overcast Overcast  
Wind Chill: 31°   Ceiling: 2300
Heat Index: 40°   Visibility: 10mi
Dew Point: 30°   Wind: 16mph
Humidity: 67%   Direction: 10°N
Pressure: 30.45"   Gusts: 23mph
Location:  40.06°N, 97.34°W
Report Text: KHJH 310815Z AUTO 01014G20KT 10SM OVC023 04/M01 A3045 RMK AO2 T00441012
Loading
Personal Weather Stations






























Interactive Weather Map New forecast layout! Learn more

10-Day Weather Forecast

Advertisements
Track Severe Weather on mobile